createdAt,value
2022-11-25T00:01:24.855Z,7.38
2022-11-25T00:03:53.026Z,6.10
2022-11-25T00:06:21.753Z,7.40
2022-11-25T00:08:50.422Z,6.45
2022-11-25T00:11:17.913Z,7.20
2022-11-25T00:13:45.931Z,6.70
2022-11-25T00:16:14.629Z,6.82
2022-11-25T00:18:45.306Z,5.82
2022-11-25T00:21:16.747Z,7.72
2022-11-25T00:23:43.903Z,6.20
2022-11-25T00:26:12.434Z,6.20
2022-11-25T00:28:39.946Z,5.40
2022-11-25T00:31:26.605Z,5.25
2022-11-25T00:33:54.179Z,4.45
2022-11-25T00:36:22.566Z,5.55
2022-11-25T00:38:53.615Z,5.38
2022-11-25T00:41:39.293Z,4.93
2022-11-25T00:46:52.056Z,4.23
2022-11-25T00:49:19.223Z,5.07
2022-11-25T00:51:46.385Z,5.05
2022-11-25T00:54:13.658Z,4.97
2022-11-25T00:56:41.192Z,4.78
2022-11-25T00:59:08.943Z,5.00
2022-11-25T01:01:36.888Z,4.95
2022-11-25T01:04:04.632Z,4.78
2022-11-25T01:06:31.898Z,5.57
2022-11-25T01:08:59.155Z,4.35
2022-11-25T01:11:26.379Z,4.63
2022-11-25T01:14:00.795Z,4.22
2022-11-25T01:16:29.049Z,4.13
2022-11-25T01:18:56.237Z,4.85
2022-11-25T01:21:27.168Z,4.57
2022-11-25T01:23:54.640Z,3.80
2022-11-25T01:26:23.083Z,4.00
2022-11-25T01:28:53.628Z,5.32
2022-11-25T01:31:22.150Z,4.47
2022-11-25T01:33:53.313Z,4.55
2022-11-25T01:36:20.504Z,4.10
2022-11-25T01:38:50.654Z,4.60
2022-11-25T01:41:18.262Z,4.70
2022-11-25T01:44:02.923Z,4.40
2022-11-25T01:46:31.918Z,4.43
2022-11-25T01:49:03.896Z,4.25
2022-11-25T01:51:53.092Z,4.43
2022-11-25T01:54:22.720Z,4.45
2022-11-25T01:57:10.868Z,4.30
2022-11-25T01:59:40.116Z,4.53
2022-11-25T02:02:07.803Z,3.70
2022-11-25T02:04:36.491Z,4.22
2022-11-25T02:07:19.773Z,4.75
2022-11-25T02:09:48.091Z,4.32
2022-11-25T02:12:17.193Z,4.70
2022-11-25T02:14:45.132Z,3.78
2022-11-25T02:17:12.291Z,4.10
2022-11-25T02:19:46.727Z,5.00
2022-11-25T02:22:19.983Z,3.33
2022-11-25T02:24:48.296Z,4.88
2022-11-25T02:27:15.431Z,3.60
2022-11-25T02:29:43.829Z,4.85
2022-11-25T02:32:11.050Z,4.03
2022-11-25T02:34:46.926Z,3.70
2022-11-25T02:37:14.597Z,3.78
2022-11-25T02:39:41.755Z,4.28
2022-11-25T02:42:08.985Z,3.92
2022-11-25T02:44:36.288Z,4.82
2022-11-25T02:47:03.629Z,4.38
2022-11-25T02:49:30.759Z,3.83
2022-11-25T02:51:57.911Z,3.75
2022-11-25T02:54:25.101Z,4.40
2022-11-25T02:56:52.297Z,4.60
2022-11-25T02:59:19.588Z,4.50
2022-11-25T03:01:47.064Z,3.53
2022-11-25T03:04:14.346Z,4.38
2022-11-25T03:06:41.491Z,4.22
2022-11-25T03:09:08.655Z,4.97
2022-11-25T03:11:54.340Z,4.82
2022-11-25T03:16:48.611Z,4.40
2022-11-25T03:19:15.831Z,4.00
2022-11-25T03:21:42.965Z,4.68
2022-11-25T03:24:10.107Z,4.82
2022-11-25T03:26:37.262Z,4.78
2022-11-25T03:29:04.395Z,4.65
2022-11-25T03:31:31.649Z,4.20
2022-11-25T03:33:58.794Z,5.40
2022-11-25T03:36:25.921Z,4.93
2022-11-25T03:38:53.108Z,4.68
2022-11-25T03:41:20.264Z,4.22
2022-11-25T03:43:48.984Z,4.75
2022-11-25T03:46:16.243Z,5.88
2022-11-25T03:48:43.416Z,4.97
2022-11-25T03:51:10.895Z,5.07
2022-11-25T03:53:38.021Z,5.43
2022-11-25T03:56:05.331Z,5.43
2022-11-25T03:58:32.476Z,5.25
2022-11-25T04:01:02.832Z,4.65
2022-11-25T04:03:30.123Z,4.80
2022-11-25T04:05:57.280Z,4.90
2022-11-25T04:08:24.682Z,5.95
2022-11-25T04:10:52.180Z,5.32
2022-11-25T04:13:19.551Z,5.28
2022-11-25T04:15:47.284Z,5.25
2022-11-25T04:18:14.915Z,5.00
2022-11-25T04:20:42.471Z,5.30
2022-11-25T04:23:09.857Z,5.05
2022-11-25T04:25:37.662Z,5.38
2022-11-25T04:28:05.027Z,5.28
2022-11-25T04:30:32.791Z,5.13
2022-11-25T04:32:59.972Z,6.10
2022-11-25T04:35:27.136Z,5.63
2022-11-25T04:37:54.400Z,5.75
2022-11-25T04:40:21.559Z,4.97
2022-11-25T04:42:48.722Z,5.90
2022-11-25T04:45:24.427Z,5.65
2022-11-25T04:47:52.674Z,5.63
2022-11-25T04:50:21.675Z,5.18
2022-11-25T04:52:48.868Z,5.40
2022-11-25T04:55:16.086Z,5.25
2022-11-25T04:57:43.224Z,5.70
2022-11-25T05:00:10.875Z,6.03
2022-11-25T05:02:38.100Z,6.45
2022-11-25T05:05:06.031Z,5.97
2022-11-25T05:07:33.386Z,5.22
2022-11-25T05:10:00.563Z,5.97
2022-11-25T05:12:29.185Z,6.05
2022-11-25T05:14:56.530Z,5.55
2022-11-25T05:17:24.961Z,6.30
2022-11-25T05:19:52.313Z,5.88
2022-11-25T05:22:21.396Z,5.78
2022-11-25T05:24:48.777Z,6.15
2022-11-25T05:27:16.290Z,5.85
2022-11-25T05:29:43.447Z,5.78
2022-11-25T05:32:10.737Z,6.78
2022-11-25T05:34:38.750Z,6.78
2022-11-25T05:37:06.165Z,5.57
2022-11-25T05:39:33.359Z,7.57
2022-11-25T05:42:00.591Z,6.90
2022-11-25T05:44:28.192Z,6.32
2022-11-25T05:46:55.362Z,5.97
2022-11-25T05:49:22.562Z,5.80
2022-11-25T05:51:49.686Z,6.53
2022-11-25T05:54:17.334Z,6.93
2022-11-25T05:56:44.468Z,5.78
2022-11-25T05:59:11.614Z,6.57
2022-11-25T06:01:38.767Z,6.18
2022-11-25T06:04:06.058Z,5.78
2022-11-25T06:06:33.296Z,5.93
2022-11-25T06:09:01.091Z,6.32
2022-11-25T06:11:28.337Z,6.22
2022-11-25T06:13:57.596Z,6.88
2022-11-25T06:16:25.611Z,6.18
2022-11-25T06:18:52.951Z,5.90
2022-11-25T06:21:20.111Z,7.20
2022-11-25T06:23:47.320Z,6.63
2022-11-25T06:26:14.419Z,6.28
2022-11-25T06:28:41.616Z,7.55
2022-11-25T06:31:10.139Z,7.10
2022-11-25T06:33:37.911Z,7.10
2022-11-25T06:36:09.861Z,7.85
2022-11-25T06:38:37.088Z,7.65
2022-11-25T06:41:05.449Z,7.28
2022-11-25T06:43:33.191Z,8.40
2022-11-25T06:46:04.765Z,8.93
2022-11-25T06:48:32.265Z,8.80
2022-11-25T06:51:00.552Z,8.65
2022-11-25T06:53:28.186Z,8.90
2022-11-25T06:56:04.550Z,8.95
2022-11-25T06:58:35.997Z,7.80
2022-11-25T07:01:05.242Z,9.23
2022-11-25T07:03:32.459Z,11.05
2022-11-25T07:06:00.283Z,9.05
2022-11-25T07:08:32.392Z,9.25
2022-11-25T07:11:27.727Z,9.80
2022-11-25T07:13:56.274Z,8.07
2022-11-25T07:16:23.840Z,9.65
2022-11-25T07:18:51.060Z,10.32
2022-11-25T07:21:20.050Z,10.27
2022-11-25T07:23:47.397Z,9.75
2022-11-25T07:26:15.730Z,9.73
2022-11-25T07:28:43.657Z,11.38
2022-11-25T07:31:28.769Z,9.98
2022-11-25T07:34:00.755Z,11.18
2022-11-25T07:36:28.562Z,11.68
2022-11-25T07:38:56.139Z,11.43
2022-11-25T07:41:24.379Z,11.98
2022-11-25T07:43:53.515Z,11.82
2022-11-25T07:46:26.548Z,12.35
2022-11-25T07:48:55.525Z,11.70
2022-11-25T07:51:24.807Z,12.65
2022-11-25T07:53:52.348Z,12.27
2022-11-25T07:56:19.535Z,12.98
2022-11-25T07:58:46.756Z,13.20
2022-11-25T08:01:15.056Z,13.48
2022-11-25T08:03:43.183Z,12.75
2022-11-25T08:06:11.703Z,13.82
2022-11-25T08:08:39.384Z,12.07
2022-11-25T08:11:07.947Z,13.45
2022-11-25T08:13:35.113Z,13.40
2022-11-25T08:16:02.392Z,13.90
2022-11-25T08:18:29.590Z,13.23
2022-11-25T08:21:04.688Z,12.30
2022-11-25T08:23:32.562Z,12.25
2022-11-25T08:26:03.884Z,12.40
2022-11-25T08:28:31.071Z,15.10
2022-11-25T08:31:05.907Z,11.05
2022-11-25T08:33:33.230Z,11.57
2022-11-25T08:36:00.522Z,12.63
2022-11-25T08:38:27.995Z,12.98
2022-11-25T08:40:55.266Z,13.18
2022-11-25T08:43:27.881Z,12.13
2022-11-25T08:45:56.574Z,11.65
2022-11-25T08:48:23.764Z,11.02
2022-11-25T08:50:54.917Z,12.50
2022-11-25T08:53:22.926Z,10.93
2022-11-25T08:55:50.094Z,10.18
2022-11-25T08:58:17.287Z,10.82
2022-11-25T09:00:45.530Z,10.10
2022-11-25T09:03:13.026Z,9.88
2022-11-25T09:05:41.852Z,10.20
2022-11-25T09:08:09.675Z,10.35
2022-11-25T09:10:37.340Z,9.57
2022-11-25T09:13:04.615Z,8.77
2022-11-25T09:15:32.690Z,9.30
2022-11-25T09:18:04.057Z,10.50
2022-11-25T09:20:32.297Z,11.13
2022-11-25T09:23:00.260Z,9.70
2022-11-25T09:25:27.603Z,8.57
2022-11-25T09:27:54.923Z,8.35
2022-11-25T09:30:22.146Z,8.07
2022-11-25T09:32:50.174Z,8.25
2022-11-25T09:35:17.628Z,7.88
2022-11-25T09:37:44.761Z,7.45
2022-11-25T09:40:18.820Z,8.38
2022-11-25T09:43:11.014Z,8.60
2022-11-25T09:46:25.670Z,7.32
2022-11-25T09:48:52.900Z,7.47
2022-11-25T09:51:38.878Z,8.32
2022-11-25T09:54:16.784Z,7.57
2022-11-25T09:56:49.500Z,7.10
2022-11-25T09:59:21.234Z,7.38
2022-11-25T10:01:54.477Z,7.85
2022-11-25T10:04:27.717Z,6.90
2022-11-25T10:06:57.140Z,7.30
2022-11-25T10:09:29.662Z,6.88
2022-11-25T10:11:59.125Z,7.22
2022-11-25T10:14:35.336Z,7.32
2022-11-25T10:17:02.492Z,6.88
2022-11-25T10:19:36.014Z,7.75
2022-11-25T10:22:22.355Z,7.18
2022-11-25T10:24:50.282Z,6.47
2022-11-25T10:27:25.058Z,6.88
2022-11-25T10:29:59.850Z,7.07
2022-11-25T10:32:28.278Z,6.80
2022-11-25T10:35:01.434Z,7.00
2022-11-25T10:37:35.320Z,6.28
2022-11-25T10:40:02.592Z,6.25
2022-11-25T10:42:30.236Z,6.05
2022-11-25T10:44:57.471Z,5.20
2022-11-25T10:47:32.937Z,5.53
2022-11-25T10:50:04.490Z,5.78
2022-11-25T10:52:35.142Z,4.78
2022-11-25T10:55:13.181Z,5.20
2022-11-25T10:57:40.471Z,5.32
2022-11-25T11:00:14.099Z,4.57
2022-11-25T11:02:48.381Z,4.43
2022-11-25T11:05:22.011Z,4.60
2022-11-25T11:07:49.215Z,4.43
2022-11-25T11:10:34.505Z,4.53
2022-11-25T11:13:03.332Z,4.35
2022-11-25T11:15:50.876Z,4.40
2022-11-25T11:18:40.323Z,4.50
2022-11-25T11:21:09.396Z,4.25
2022-11-25T11:23:51.090Z,4.03
2022-11-25T11:26:26.471Z,4.00
2022-11-25T11:31:27.170Z,4.05
2022-11-25T11:34:06.535Z,4.43
2022-11-25T11:36:36.419Z,4.70
2022-11-25T11:39:06.412Z,3.80
2022-11-25T11:41:50.803Z,3.60
2022-11-25T11:44:23.797Z,4.55
2022-11-25T11:47:02.563Z,4.00
2022-11-25T11:49:41.155Z,3.97
2022-11-25T11:52:12.033Z,4.63
2022-11-25T11:54:53.422Z,4.03
2022-11-25T11:57:36.427Z,4.32
2022-11-25T12:00:06.945Z,4.22
2022-11-25T12:02:34.191Z,3.83
2022-11-25T12:05:05.586Z,4.53
2022-11-25T12:07:35.402Z,3.78
2022-11-25T12:10:16.245Z,3.78
2022-11-25T12:13:13.382Z,3.95
2022-11-25T12:15:43.668Z,3.95
2022-11-25T12:18:36.908Z,3.60
2022-11-25T12:21:05.510Z,3.80
2022-11-25T12:23:52.904Z,4.13
2022-11-25T12:26:31.742Z,4.35
2022-11-25T12:29:00.731Z,3.65
2022-11-25T12:31:30.225Z,3.53
2022-11-25T12:34:00.637Z,3.67
2022-11-25T12:36:35.558Z,4.15
2022-11-25T12:39:05.016Z,3.65
2022-11-25T12:41:45.534Z,3.85
2022-11-25T12:44:12.654Z,3.08
2022-11-25T12:46:42.219Z,3.38
2022-11-25T12:49:16.399Z,3.65
2022-11-25T12:51:55.708Z,4.28
2022-11-25T12:54:25.881Z,3.80
2022-11-25T12:56:52.996Z,3.67
2022-11-25T12:59:34.416Z,3.70
2022-11-25T13:02:20.494Z,3.70
2022-11-25T13:05:38.828Z,3.58
2022-11-25T13:08:19.425Z,3.17
2022-11-25T13:10:51.531Z,3.60
2022-11-25T13:13:27.972Z,3.42
2022-11-25T13:15:56.056Z,3.50
2022-11-25T13:18:25.904Z,4.07
2022-11-25T13:20:56.967Z,3.90
2022-11-25T13:23:25.863Z,3.60
2022-11-25T13:25:54.145Z,3.20
2022-11-25T13:28:37.713Z,3.05
2022-11-25T13:31:14.069Z,2.65
2022-11-25T13:33:44.790Z,3.30
2022-11-25T13:36:18.129Z,3.35
2022-11-25T13:38:51.363Z,3.08
2022-11-25T13:41:21.344Z,3.70
2022-11-25T13:43:54.673Z,3.28
2022-11-25T13:46:30.294Z,4.07
2022-11-25T13:48:57.524Z,3.83
2022-11-25T13:51:27.154Z,4.18
2022-11-25T13:54:01.110Z,3.45
2022-11-25T13:56:30.204Z,3.35
2022-11-25T13:59:13.968Z,3.38
2022-11-25T14:01:47.395Z,3.53
2022-11-25T14:04:15.453Z,2.95
2022-11-25T14:06:44.016Z,3.45
2022-11-25T14:09:13.947Z,3.55
2022-11-25T14:11:44.005Z,3.47
2022-11-25T14:14:17.322Z,3.83
2022-11-25T14:16:59.853Z,4.05
2022-11-25T14:19:52.779Z,3.10
2022-11-25T14:22:39.025Z,4.07
2022-11-25T14:25:26.787Z,3.17
2022-11-25T14:28:14.223Z,4.32
2022-11-25T14:30:53.046Z,3.33
2022-11-25T14:33:26.756Z,3.58
2022-11-25T14:35:56.414Z,3.50
2022-11-25T14:38:25.816Z,3.58
2022-11-25T14:41:00.246Z,3.92
2022-11-25T14:43:27.970Z,3.63
2022-11-25T14:46:15.603Z,4.03
2022-11-25T14:48:43.411Z,3.60
2022-11-25T14:51:13.675Z,2.92
2022-11-25T14:53:48.111Z,3.38
2022-11-25T14:56:17.109Z,3.53
2022-11-25T14:58:48.452Z,3.15
2022-11-25T15:01:19.860Z,3.65
2022-11-25T15:03:48.001Z,3.45
2022-11-25T15:06:15.905Z,4.40
2022-11-25T15:08:47.269Z,4.05
2022-11-25T15:11:16.728Z,3.50
2022-11-25T15:13:54.483Z,4.38
2022-11-25T15:16:23.346Z,4.20
2022-11-25T15:18:55.340Z,3.47
2022-11-25T15:21:24.446Z,3.38
2022-11-25T15:23:51.641Z,4.00
2022-11-25T15:26:23.032Z,4.10
2022-11-25T15:29:00.803Z,4.13
2022-11-25T15:31:30.355Z,3.80
2022-11-25T15:33:59.163Z,4.03
2022-11-25T15:36:26.754Z,4.90
2022-11-25T15:38:54.471Z,4.40
2022-11-25T15:41:35.161Z,3.92
2022-11-25T15:44:04.225Z,4.13
2022-11-25T15:46:33.113Z,4.20
2022-11-25T15:49:02.037Z,4.20
2022-11-25T15:51:32.202Z,4.57
2022-11-25T15:54:02.666Z,4.40
2022-11-25T15:56:29.955Z,4.88
2022-11-25T15:59:01.470Z,4.80
2022-11-25T16:01:29.750Z,4.50
2022-11-25T16:04:10.928Z,3.88
2022-11-25T16:06:38.084Z,4.30
2022-11-25T16:09:17.922Z,4.85
2022-11-25T16:11:45.839Z,5.07
2022-11-25T16:14:30.684Z,4.80
2022-11-25T16:17:06.290Z,4.47
2022-11-25T16:19:38.210Z,5.13
2022-11-25T16:22:05.974Z,4.57
2022-11-25T16:24:35.511Z,4.57
2022-11-25T16:27:08.030Z,4.78
2022-11-25T16:29:38.626Z,5.15
2022-11-25T16:32:16.292Z,4.82
2022-11-25T16:34:43.841Z,5.63
2022-11-25T16:37:11.109Z,5.90
2022-11-25T16:39:39.417Z,5.10
2022-11-25T16:42:07.420Z,5.88
2022-11-25T16:44:35.290Z,5.18
2022-11-25T16:47:02.604Z,5.65
2022-11-25T16:49:30.674Z,4.95
2022-11-25T16:51:58.204Z,5.55
2022-11-25T16:54:25.421Z,5.30
2022-11-25T16:56:53.597Z,5.25
2022-11-25T16:59:32.330Z,6.50
2022-11-25T17:02:00.268Z,6.15
2022-11-25T17:04:27.708Z,6.03
2022-11-25T17:07:30.447Z,6.15
2022-11-25T17:09:44.326Z,6.13
2022-11-25T17:12:15.138Z,6.68
2022-11-25T17:14:42.504Z,7.13
2022-11-25T17:17:12.197Z,6.78
2022-11-25T17:19:39.782Z,6.60
2022-11-25T17:22:14.321Z,7.43
2022-11-25T17:24:41.508Z,6.78
2022-11-25T17:27:08.839Z,6.63
2022-11-25T17:29:40.513Z,7.72
2022-11-25T17:32:08.006Z,6.03
2022-11-25T17:34:39.473Z,5.95
2022-11-25T17:37:20.313Z,6.47
2022-11-25T17:39:47.694Z,6.93
2022-11-25T17:42:16.425Z,6.90
2022-11-25T17:44:45.918Z,6.45
2022-11-25T17:47:17.147Z,6.80
2022-11-25T17:49:45.852Z,7.57
2022-11-25T17:52:13.114Z,7.80
2022-11-25T17:54:40.697Z,8.20
2022-11-25T17:57:08.927Z,7.35
2022-11-25T17:59:36.363Z,7.75
2022-11-25T18:02:03.585Z,8.18
2022-11-25T18:04:35.600Z,7.93
2022-11-25T18:07:03.004Z,8.18
2022-11-25T18:09:30.208Z,7.50
2022-11-25T18:11:58.699Z,8.00
2022-11-25T18:14:27.207Z,8.77
2022-11-25T18:16:55.534Z,7.32
2022-11-25T18:19:23.034Z,8.25
2022-11-25T18:21:50.219Z,8.02
2022-11-25T18:24:17.364Z,9.07
2022-11-25T18:26:45.684Z,7.95
2022-11-25T18:29:15.364Z,8.18
2022-11-25T18:31:44.668Z,8.10
2022-11-25T18:34:15.731Z,8.35
2022-11-25T18:36:42.937Z,8.43
2022-11-25T18:39:10.167Z,8.32
2022-11-25T18:41:38.191Z,8.68
2022-11-25T18:44:06.484Z,8.32
2022-11-25T18:46:37.536Z,8.43
2022-11-25T18:49:14.582Z,9.18
2022-11-25T18:51:42.216Z,10.00
2022-11-25T18:54:10.024Z,8.60
2022-11-25T18:56:37.958Z,9.25
2022-11-25T18:59:05.722Z,9.02
2022-11-25T19:01:33.103Z,9.52
2022-11-25T19:04:00.370Z,10.20
2022-11-25T19:06:29.273Z,10.18
2022-11-25T19:08:56.879Z,10.45
2022-11-25T19:11:29.709Z,9.38
2022-11-25T19:14:01.668Z,9.88
2022-11-25T19:16:29.049Z,9.82
2022-11-25T19:18:56.250Z,9.15
2022-11-25T19:21:24.485Z,10.23
2022-11-25T19:23:51.687Z,9.70
2022-11-25T19:26:24.314Z,9.95
2022-11-25T19:28:55.656Z,9.93
2022-11-25T19:31:22.979Z,7.97
2022-11-25T19:33:51.406Z,12.05
2022-11-25T19:36:26.285Z,10.70
2022-11-25T19:38:54.036Z,12.10
2022-11-25T19:41:21.208Z,10.65
2022-11-25T19:43:48.426Z,10.60
2022-11-25T19:46:23.999Z,10.40
2022-11-25T19:48:55.740Z,9.60
2022-11-25T19:51:24.304Z,12.10
2022-11-25T19:53:52.745Z,10.13
2022-11-25T19:56:23.845Z,10.25
2022-11-25T19:58:52.823Z,9.45
2022-11-25T20:01:21.012Z,10.20
2022-11-25T20:03:50.539Z,10.45
2022-11-25T20:06:20.965Z,10.57
2022-11-25T20:08:48.099Z,10.23
2022-11-25T20:11:16.149Z,10.45
2022-11-25T20:13:44.435Z,11.43
2022-11-25T20:16:20.366Z,11.02
2022-11-25T20:18:49.086Z,10.30
2022-11-25T20:21:24.617Z,11.55
2022-11-25T20:23:51.961Z,12.30
2022-11-25T20:26:21.520Z,12.10
2022-11-25T20:28:49.272Z,12.50
2022-11-25T20:31:16.948Z,11.77
2022-11-25T20:33:44.305Z,12.45
2022-11-25T20:36:16.267Z,11.55
2022-11-25T20:38:47.942Z,11.75
2022-11-25T20:41:15.752Z,11.90
2022-11-25T20:43:44.031Z,12.73
2022-11-25T20:46:22.797Z,12.23
2022-11-25T20:48:52.258Z,12.38
2022-11-25T20:51:20.756Z,11.93
2022-11-25T20:53:49.581Z,12.25
2022-11-25T20:56:18.059Z,13.52
2022-11-25T20:58:45.616Z,12.52
2022-11-25T21:01:14.466Z,12.43
2022-11-25T21:03:42.647Z,11.15
2022-11-25T21:06:24.097Z,11.20
2022-11-25T21:08:52.755Z,12.18
2022-11-25T21:11:21.290Z,11.32
2022-11-25T21:13:48.631Z,11.60
2022-11-25T21:16:16.310Z,13.10
2022-11-25T21:18:44.056Z,11.45
2022-11-25T21:21:18.775Z,10.48
2022-11-25T21:23:47.659Z,10.60
2022-11-25T21:26:17.986Z,10.82
2022-11-25T21:28:46.218Z,12.20
2022-11-25T21:31:23.696Z,11.45
2022-11-25T21:33:51.054Z,10.57
2022-11-25T21:36:22.811Z,11.73
2022-11-25T21:38:52.047Z,13.52
2022-11-25T21:41:19.519Z,11.43
2022-11-25T21:43:48.854Z,10.07
2022-11-25T21:46:21.202Z,11.35
2022-11-25T21:48:48.927Z,13.18
2022-11-25T21:51:24.109Z,11.93
2022-11-25T21:56:28.780Z,11.95
2022-11-25T21:58:56.574Z,11.50
2022-11-25T22:01:24.422Z,12.07
2022-11-25T22:03:51.698Z,10.30
2022-11-25T22:06:20.602Z,12.02
2022-11-25T22:08:47.842Z,11.05
2022-11-25T22:11:16.742Z,10.75
2022-11-25T22:13:44.414Z,10.70
2022-11-25T22:16:16.445Z,10.68
2022-11-25T22:18:44.464Z,10.68
2022-11-25T22:21:15.192Z,10.15
2022-11-25T22:23:43.067Z,10.68
2022-11-25T22:26:30.129Z,11.52
2022-11-25T22:28:57.562Z,9.77
2022-11-25T22:31:24.785Z,9.30
2022-11-25T22:33:52.041Z,10.43
2022-11-25T22:36:33.953Z,9.20
2022-11-25T22:39:27.535Z,9.75
2022-11-25T22:41:56.112Z,9.32
2022-11-25T22:44:25.498Z,9.80
2022-11-25T22:46:52.872Z,9.82
2022-11-25T22:49:27.997Z,10.13
2022-11-25T22:51:55.647Z,11.30
2022-11-25T22:54:23.982Z,8.90
2022-11-25T22:56:51.303Z,9.77
2022-11-25T22:59:18.535Z,9.60
2022-11-25T23:01:46.013Z,9.68
2022-11-25T23:04:17.099Z,8.60
2022-11-25T23:06:44.530Z,9.57
2022-11-25T23:09:16.016Z,9.27
2022-11-25T23:11:43.584Z,8.75
2022-11-25T23:14:10.955Z,7.68
2022-11-25T23:16:39.181Z,8.32
2022-11-25T23:19:07.045Z,9.48
2022-11-25T23:21:34.226Z,8.18
2022-11-25T23:24:01.635Z,7.78
2022-11-25T23:26:32.297Z,7.03
2022-11-25T23:29:02.128Z,7.20
2022-11-25T23:31:29.306Z,7.80
2022-11-25T23:33:56.658Z,8.88
2022-11-25T23:36:31.724Z,8.32
2022-11-25T23:39:03.703Z,9.38
2022-11-25T23:41:32.135Z,7.30
2022-11-25T23:44:02.798Z,6.88
2022-11-25T23:46:32.845Z,8.35
2022-11-25T23:49:01.937Z,7.65
2022-11-25T23:51:29.651Z,8.75
2022-11-25T23:53:57.562Z,10.38
2022-11-25T23:56:26.484Z,10.25
2022-11-25T23:58:53.609Z,10.43
